sensor_id;sensor_type;location;lat;lon;timestamp;P1;durP1;ratioP1;P2;durP2;ratioP2
41861;SDS011;27537;57.134;-2.136;2022-11-15T00:00:56;38.47;;;18.50;;
41861;SDS011;27537;57.134;-2.136;2022-11-15T00:03:23;42.40;;;19.63;;
41861;SDS011;27537;57.134;-2.136;2022-11-15T00:05:51;39.40;;;17.30;;
41861;SDS011;27537;57.134;-2.136;2022-11-15T00:08:18;41.72;;;20.50;;
41861;SDS011;27537;57.134;-2.136;2022-11-15T00:10:58;28.75;;;17.08;;
41861;SDS011;27537;57.134;-2.136;2022-11-15T00:13:27;35.22;;;20.00;;
41861;SDS011;27537;57.134;-2.136;2022-11-15T00:15:56;35.22;;;18.27;;
41861;SDS011;27537;57.134;-2.136;2022-11-15T00:18:24;33.80;;;19.13;;
41861;SDS011;27537;57.134;-2.136;2022-11-15T00:20:51;35.22;;;17.83;;
41861;SDS011;27537;57.134;-2.136;2022-11-15T00:23:18;35.83;;;18.58;;
41861;SDS011;27537;57.134;-2.136;2022-11-15T00:25:45;38.88;;;21.00;;
41861;SDS011;27537;57.134;-2.136;2022-11-15T00:28:12;44.60;;;21.10;;
41861;SDS011;27537;57.134;-2.136;2022-11-15T00:30:39;40.78;;;22.05;;
41861;SDS011;27537;57.134;-2.136;2022-11-15T00:33:06;39.42;;;19.95;;
41861;SDS011;27537;57.134;-2.136;2022-11-15T00:35:34;41.75;;;21.45;;
41861;SDS011;27537;57.134;-2.136;2022-11-15T00:38:01;41.78;;;21.23;;
41861;SDS011;27537;57.134;-2.136;2022-11-15T00:40:28;36.42;;;19.83;;
41861;SDS011;27537;57.134;-2.136;2022-11-15T00:42:55;48.80;;;22.05;;
41861;SDS011;27537;57.134;-2.136;2022-11-15T00:45:22;39.17;;;21.92;;
41861;SDS011;27537;57.134;-2.136;2022-11-15T00:47:49;45.08;;;22.55;;
41861;SDS011;27537;57.134;-2.136;2022-11-15T00:50:16;39.17;;;21.50;;
41861;SDS011;27537;57.134;-2.136;2022-11-15T00:52:43;48.08;;;22.52;;
41861;SDS011;27537;57.134;-2.136;2022-11-15T00:55:14;40.97;;;20.58;;
41861;SDS011;27537;57.134;-2.136;2022-11-15T00:57:42;47.85;;;22.67;;
41861;SDS011;27537;57.134;-2.136;2022-11-15T01:00:10;41.35;;;21.35;;
41861;SDS011;27537;57.134;-2.136;2022-11-15T01:02:38;43.63;;;20.73;;
41861;SDS011;27537;57.134;-2.136;2022-11-15T01:05:05;39.33;;;19.50;;
41861;SDS011;27537;57.134;-2.136;2022-11-15T01:07:32;39.13;;;18.50;;
41861;SDS011;27537;57.134;-2.136;2022-11-15T01:09:59;46.63;;;22.92;;
41861;SDS011;27537;57.134;-2.136;2022-11-15T01:12:25;36.83;;;19.40;;
41861;SDS011;27537;57.134;-2.136;2022-11-15T01:14:52;36.03;;;19.20;;
41861;SDS011;27537;57.134;-2.136;2022-11-15T01:17:19;38.63;;;20.33;;
41861;SDS011;27537;57.134;-2.136;2022-11-15T01:19:46;40.00;;;18.85;;
41861;SDS011;27537;57.134;-2.136;2022-11-15T01:22:12;42.90;;;19.63;;
41861;SDS011;27537;57.134;-2.136;2022-11-15T01:24:39;37.03;;;18.48;;
41861;SDS011;27537;57.134;-2.136;2022-11-15T01:27:06;34.60;;;17.33;;
41861;SDS011;27537;57.134;-2.136;2022-11-15T01:29:33;33.67;;;19.45;;
41861;SDS011;27537;57.134;-2.136;2022-11-15T01:32:00;36.72;;;18.17;;
41861;SDS011;27537;57.134;-2.136;2022-11-15T01:34:27;32.42;;;17.85;;
41861;SDS011;27537;57.134;-2.136;2022-11-15T01:36:53;39.75;;;18.55;;
41861;SDS011;27537;57.134;-2.136;2022-11-15T01:39:20;41.42;;;20.13;;
41861;SDS011;27537;57.134;-2.136;2022-11-15T01:41:47;35.97;;;17.95;;
41861;SDS011;27537;57.134;-2.136;2022-11-15T01:47:03;35.60;;;18.88;;
41861;SDS011;27537;57.134;-2.136;2022-11-15T01:49:39;37.63;;;19.08;;
41861;SDS011;27537;57.134;-2.136;2022-11-15T01:52:17;35.55;;;17.55;;
41861;SDS011;27537;57.134;-2.136;2022-11-15T01:54:48;31.80;;;18.15;;
41861;SDS011;27537;57.134;-2.136;2022-11-15T01:57:20;45.28;;;19.23;;
41861;SDS011;27537;57.134;-2.136;2022-11-15T01:59:47;37.28;;;19.45;;
41861;SDS011;27537;57.134;-2.136;2022-11-15T02:02:14;38.92;;;20.33;;
41861;SDS011;27537;57.134;-2.136;2022-11-15T02:04:44;42.78;;;22.45;;
41861;SDS011;27537;57.134;-2.136;2022-11-15T02:07:13;40.40;;;20.00;;
41861;SDS011;27537;57.134;-2.136;2022-11-15T02:09:44;47.00;;;21.52;;
41861;SDS011;27537;57.134;-2.136;2022-11-15T02:12:13;45.80;;;19.35;;
41861;SDS011;27537;57.134;-2.136;2022-11-15T02:14:46;45.55;;;22.63;;
41861;SDS011;27537;57.134;-2.136;2022-11-15T02:17:41;34.97;;;18.40;;
41861;SDS011;27537;57.134;-2.136;2022-11-15T02:29:04;46.30;;;21.27;;
41861;SDS011;27537;57.134;-2.136;2022-11-15T02:34:28;39.60;;;21.50;;
41861;SDS011;27537;57.134;-2.136;2022-11-15T02:42:25;34.75;;;18.25;;
41861;SDS011;27537;57.134;-2.136;2022-11-15T02:45:16;38.83;;;20.83;;
41861;SDS011;27537;57.134;-2.136;2022-11-15T02:47:48;39.53;;;20.33;;
41861;SDS011;27537;57.134;-2.136;2022-11-15T02:50:21;38.30;;;20.55;;
41861;SDS011;27537;57.134;-2.136;2022-11-15T02:52:51;37.25;;;19.38;;
41861;SDS011;27537;57.134;-2.136;2022-11-15T02:55:25;35.00;;;18.48;;
41861;SDS011;27537;57.134;-2.136;2022-11-15T03:01:00;31.55;;;15.93;;
41861;SDS011;27537;57.134;-2.136;2022-11-15T03:11:55;29.60;;;16.15;;
41861;SDS011;27537;57.134;-2.136;2022-11-15T03:14:29;30.33;;;16.02;;
41861;SDS011;27537;57.134;-2.136;2022-11-15T03:19:48;32.97;;;16.08;;
41861;SDS011;27537;57.134;-2.136;2022-11-15T03:22:18;36.58;;;15.63;;
41861;SDS011;27537;57.134;-2.136;2022-11-15T03:24:50;34.60;;;15.38;;
41861;SDS011;27537;57.134;-2.136;2022-11-15T03:27:21;31.40;;;15.65;;
41861;SDS011;27537;57.134;-2.136;2022-11-15T03:29:55;35.10;;;17.85;;
41861;SDS011;27537;57.134;-2.136;2022-11-15T03:32:27;36.75;;;16.55;;
41861;SDS011;27537;57.134;-2.136;2022-11-15T03:40:42;36.00;;;17.55;;
41861;SDS011;27537;57.134;-2.136;2022-11-15T03:43:24;39.08;;;17.63;;
41861;SDS011;27537;57.134;-2.136;2022-11-15T03:49:12;40.63;;;16.97;;
41861;SDS011;27537;57.134;-2.136;2022-11-15T03:51:44;35.53;;;17.10;;
41861;SDS011;27537;57.134;-2.136;2022-11-15T03:54:12;39.42;;;17.27;;
41861;SDS011;27537;57.134;-2.136;2022-11-15T03:56:39;38.20;;;18.23;;
41861;SDS011;27537;57.134;-2.136;2022-11-15T03:59:06;36.65;;;18.73;;
41861;SDS011;27537;57.134;-2.136;2022-11-15T04:01:33;33.80;;;18.83;;
41861;SDS011;27537;57.134;-2.136;2022-11-15T04:04:00;37.35;;;18.98;;
41861;SDS011;27537;57.134;-2.136;2022-11-15T04:06:27;41.00;;;20.13;;
41861;SDS011;27537;57.134;-2.136;2022-11-15T04:08:54;36.03;;;19.05;;
41861;SDS011;27537;57.134;-2.136;2022-11-15T04:11:20;40.78;;;20.48;;
41861;SDS011;27537;57.134;-2.136;2022-11-15T04:13:47;39.67;;;22.05;;
41861;SDS011;27537;57.134;-2.136;2022-11-15T04:16:14;36.67;;;20.30;;
41861;SDS011;27537;57.134;-2.136;2022-11-15T04:18:41;45.33;;;21.42;;
41861;SDS011;27537;57.134;-2.136;2022-11-15T04:21:08;42.58;;;21.08;;
41861;SDS011;27537;57.134;-2.136;2022-11-15T04:23:53;40.80;;;22.33;;
41861;SDS011;27537;57.134;-2.136;2022-11-15T04:26:38;41.80;;;22.50;;
41861;SDS011;27537;57.134;-2.136;2022-11-15T04:29:05;43.03;;;21.75;;
41861;SDS011;27537;57.134;-2.136;2022-11-15T04:31:50;42.03;;;21.30;;
41861;SDS011;27537;57.134;-2.136;2022-11-15T04:34:17;44.17;;;24.13;;
41861;SDS011;27537;57.134;-2.136;2022-11-15T04:36:44;52.47;;;22.77;;
41861;SDS011;27537;57.134;-2.136;2022-11-15T04:39:29;43.17;;;22.65;;
41861;SDS011;27537;57.134;-2.136;2022-11-15T04:41:55;41.97;;;20.85;;
41861;SDS011;27537;57.134;-2.136;2022-11-15T04:44:22;42.70;;;20.88;;
41861;SDS011;27537;57.134;-2.136;2022-11-15T04:46:49;44.00;;;21.08;;
41861;SDS011;27537;57.134;-2.136;2022-11-15T04:49:16;45.10;;;20.88;;
41861;SDS011;27537;57.134;-2.136;2022-11-15T04:51:43;37.30;;;19.95;;
41861;SDS011;27537;57.134;-2.136;2022-11-15T04:54:10;44.33;;;22.15;;
41861;SDS011;27537;57.134;-2.136;2022-11-15T04:56:36;43.67;;;22.00;;
41861;SDS011;27537;57.134;-2.136;2022-11-15T04:59:03;42.45;;;21.88;;
41861;SDS011;27537;57.134;-2.136;2022-11-15T05:01:30;40.47;;;22.40;;
41861;SDS011;27537;57.134;-2.136;2022-11-15T05:03:56;44.05;;;23.35;;
41861;SDS011;27537;57.134;-2.136;2022-11-15T05:06:42;50.00;;;24.70;;
41861;SDS011;27537;57.134;-2.136;2022-11-15T05:09:08;48.42;;;23.13;;
41861;SDS011;27537;57.134;-2.136;2022-11-15T05:11:35;40.88;;;21.80;;
41861;SDS011;27537;57.134;-2.136;2022-11-15T05:14:02;43.55;;;23.85;;
41861;SDS011;27537;57.134;-2.136;2022-11-15T05:16:29;52.67;;;23.70;;
41861;SDS011;27537;57.134;-2.136;2022-11-15T05:18:56;44.60;;;24.20;;
41861;SDS011;27537;57.134;-2.136;2022-11-15T05:21:23;48.00;;;24.35;;
41861;SDS011;27537;57.134;-2.136;2022-11-15T05:23:50;51.95;;;25.10;;
41861;SDS011;27537;57.134;-2.136;2022-11-15T05:26:17;50.40;;;25.73;;
41861;SDS011;27537;57.134;-2.136;2022-11-15T05:28:45;50.20;;;27.27;;
41861;SDS011;27537;57.134;-2.136;2022-11-15T05:31:13;57.15;;;26.33;;
41861;SDS011;27537;57.134;-2.136;2022-11-15T05:33:42;48.45;;;23.55;;
41861;SDS011;27537;57.134;-2.136;2022-11-15T05:39:02;40.67;;;21.88;;
41861;SDS011;27537;57.134;-2.136;2022-11-15T05:41:32;55.25;;;28.23;;
41861;SDS011;27537;57.134;-2.136;2022-11-15T05:44:03;53.85;;;27.55;;
41861;SDS011;27537;57.134;-2.136;2022-11-15T05:46:33;50.35;;;25.50;;
41861;SDS011;27537;57.134;-2.136;2022-11-15T05:49:03;53.10;;;28.25;;
41861;SDS011;27537;57.134;-2.136;2022-11-15T05:51:33;47.72;;;25.77;;
41861;SDS011;27537;57.134;-2.136;2022-11-15T05:54:00;54.17;;;27.42;;
41861;SDS011;27537;57.134;-2.136;2022-11-15T05:56:28;51.35;;;29.48;;
41861;SDS011;27537;57.134;-2.136;2022-11-15T05:58:55;56.45;;;30.48;;
41861;SDS011;27537;57.134;-2.136;2022-11-15T06:01:25;53.47;;;29.02;;
41861;SDS011;27537;57.134;-2.136;2022-11-15T06:03:53;54.15;;;28.25;;
41861;SDS011;27537;57.134;-2.136;2022-11-15T06:06:20;56.13;;;29.80;;
41861;SDS011;27537;57.134;-2.136;2022-11-15T06:08:46;55.20;;;27.60;;
41861;SDS011;27537;57.134;-2.136;2022-11-15T06:11:14;56.28;;;28.83;;
41861;SDS011;27537;57.134;-2.136;2022-11-15T06:13:41;51.80;;;30.20;;
41861;SDS011;27537;57.134;-2.136;2022-11-15T06:16:07;54.65;;;30.45;;
41861;SDS011;27537;57.134;-2.136;2022-11-15T06:18:35;52.10;;;27.88;;
41861;SDS011;27537;57.134;-2.136;2022-11-15T06:21:03;53.83;;;31.40;;
41861;SDS011;27537;57.134;-2.136;2022-11-15T06:23:33;51.50;;;29.30;;
41861;SDS011;27537;57.134;-2.136;2022-11-15T06:26:01;50.45;;;30.48;;
41861;SDS011;27537;57.134;-2.136;2022-11-15T06:28:29;56.75;;;31.30;;
41861;SDS011;27537;57.134;-2.136;2022-11-15T06:31:07;62.50;;;30.67;;
41861;SDS011;27537;57.134;-2.136;2022-11-15T06:33:40;51.67;;;27.73;;
41861;SDS011;27537;57.134;-2.136;2022-11-15T06:36:09;53.75;;;29.65;;
41861;SDS011;27537;57.134;-2.136;2022-11-15T06:38:43;52.85;;;29.67;;
41861;SDS011;27537;57.134;-2.136;2022-11-15T06:41:11;53.75;;;29.20;;
41861;SDS011;27537;57.134;-2.136;2022-11-15T06:43:39;49.35;;;29.17;;
41861;SDS011;27537;57.134;-2.136;2022-11-15T06:46:07;51.13;;;29.90;;
41861;SDS011;27537;57.134;-2.136;2022-11-15T06:48:35;55.40;;;26.83;;
41861;SDS011;27537;57.134;-2.136;2022-11-15T06:51:03;56.40;;;28.92;;
41861;SDS011;27537;57.134;-2.136;2022-11-15T06:53:30;54.88;;;28.50;;
41861;SDS011;27537;57.134;-2.136;2022-11-15T06:56:02;59.85;;;29.67;;
41861;SDS011;27537;57.134;-2.136;2022-11-15T06:58:31;52.60;;;29.27;;
41861;SDS011;27537;57.134;-2.136;2022-11-15T07:00:58;58.95;;;31.10;;
41861;SDS011;27537;57.134;-2.136;2022-11-15T07:03:29;50.58;;;25.38;;
41861;SDS011;27537;57.134;-2.136;2022-11-15T07:05:57;60.78;;;28.45;;
41861;SDS011;27537;57.134;-2.136;2022-11-15T07:08:32;52.90;;;28.50;;
41861;SDS011;27537;57.134;-2.136;2022-11-15T07:11:00;45.15;;;23.98;;
41861;SDS011;27537;57.134;-2.136;2022-11-15T07:13:28;57.90;;;26.40;;
41861;SDS011;27537;57.134;-2.136;2022-11-15T07:16:04;54.22;;;24.50;;
41861;SDS011;27537;57.134;-2.136;2022-11-15T07:18:39;50.05;;;23.33;;
41861;SDS011;27537;57.134;-2.136;2022-11-15T07:21:07;51.17;;;24.85;;
41861;SDS011;27537;57.134;-2.136;2022-11-15T07:23:36;53.13;;;25.65;;
41861;SDS011;27537;57.134;-2.136;2022-11-15T07:26:04;46.97;;;24.60;;
41861;SDS011;27537;57.134;-2.136;2022-11-15T07:28:31;46.42;;;25.08;;
41861;SDS011;27537;57.134;-2.136;2022-11-15T07:31:01;56.25;;;27.02;;
41861;SDS011;27537;57.134;-2.136;2022-11-15T07:33:33;47.35;;;23.95;;
41861;SDS011;27537;57.134;-2.136;2022-11-15T07:36:04;50.08;;;24.67;;
41861;SDS011;27537;57.134;-2.136;2022-11-15T07:38:33;47.72;;;23.38;;
41861;SDS011;27537;57.134;-2.136;2022-11-15T07:41:07;51.80;;;23.85;;
41861;SDS011;27537;57.134;-2.136;2022-11-15T07:43:35;54.25;;;25.15;;
41861;SDS011;27537;57.134;-2.136;2022-11-15T07:46:06;52.42;;;26.27;;
41861;SDS011;27537;57.134;-2.136;2022-11-15T07:48:36;55.90;;;26.73;;
41861;SDS011;27537;57.134;-2.136;2022-11-15T07:51:12;51.08;;;25.17;;
41861;SDS011;27537;57.134;-2.136;2022-11-15T07:53:41;46.03;;;25.70;;
41861;SDS011;27537;57.134;-2.136;2022-11-15T07:56:09;48.47;;;24.75;;
41861;SDS011;27537;57.134;-2.136;2022-11-15T07:58:36;56.15;;;27.42;;
41861;SDS011;27537;57.134;-2.136;2022-11-15T08:01:06;49.03;;;25.17;;
41861;SDS011;27537;57.134;-2.136;2022-11-15T08:03:35;45.00;;;25.00;;
41861;SDS011;27537;57.134;-2.136;2022-11-15T08:06:02;54.95;;;25.42;;
41861;SDS011;27537;57.134;-2.136;2022-11-15T08:08:29;46.33;;;24.05;;
41861;SDS011;27537;57.134;-2.136;2022-11-15T08:10:59;57.05;;;25.92;;
41861;SDS011;27537;57.134;-2.136;2022-11-15T08:13:26;49.10;;;26.58;;
41861;SDS011;27537;57.134;-2.136;2022-11-15T08:15:57;55.08;;;24.48;;
41861;SDS011;27537;57.134;-2.136;2022-11-15T08:18:28;49.70;;;26.67;;
41861;SDS011;27537;57.134;-2.136;2022-11-15T08:20:58;58.83;;;26.65;;
41861;SDS011;27537;57.134;-2.136;2022-11-15T08:23:26;53.30;;;26.17;;
41861;SDS011;27537;57.134;-2.136;2022-11-15T08:25:53;59.13;;;27.27;;
41861;SDS011;27537;57.134;-2.136;2022-11-15T08:28:25;57.85;;;27.00;;
41861;SDS011;27537;57.134;-2.136;2022-11-15T08:30:52;55.53;;;26.73;;
41861;SDS011;27537;57.134;-2.136;2022-11-15T08:33:19;60.08;;;28.33;;
41861;SDS011;27537;57.134;-2.136;2022-11-15T08:35:46;54.33;;;28.15;;
41861;SDS011;27537;57.134;-2.136;2022-11-15T08:38:13;61.92;;;28.58;;
41861;SDS011;27537;57.134;-2.136;2022-11-15T08:40:40;59.53;;;28.83;;
41861;SDS011;27537;57.134;-2.136;2022-11-15T08:43:06;59.50;;;28.20;;
41861;SDS011;27537;57.134;-2.136;2022-11-15T08:45:34;52.03;;;27.60;;
41861;SDS011;27537;57.134;-2.136;2022-11-15T08:48:02;52.25;;;27.85;;
41861;SDS011;27537;57.134;-2.136;2022-11-15T08:50:29;49.13;;;26.13;;
41861;SDS011;27537;57.134;-2.136;2022-11-15T08:52:57;59.58;;;29.77;;
41861;SDS011;27537;57.134;-2.136;2022-11-15T08:55:24;51.67;;;27.95;;
41861;SDS011;27537;57.134;-2.136;2022-11-15T08:57:51;51.97;;;28.17;;
41861;SDS011;27537;57.134;-2.136;2022-11-15T09:00:18;44.60;;;25.05;;
41861;SDS011;27537;57.134;-2.136;2022-11-15T09:02:46;47.70;;;24.73;;
41861;SDS011;27537;57.134;-2.136;2022-11-15T09:05:13;57.30;;;26.27;;
41861;SDS011;27537;57.134;-2.136;2022-11-15T09:07:41;53.47;;;24.48;;
41861;SDS011;27537;57.134;-2.136;2022-11-15T09:10:09;48.17;;;25.63;;
41861;SDS011;27537;57.134;-2.136;2022-11-15T09:12:36;53.45;;;26.85;;
41861;SDS011;27537;57.134;-2.136;2022-11-15T09:15:04;51.65;;;27.10;;
41861;SDS011;27537;57.134;-2.136;2022-11-15T09:17:31;59.03;;;25.35;;
41861;SDS011;27537;57.134;-2.136;2022-11-15T09:19:58;46.25;;;25.02;;
41861;SDS011;27537;57.134;-2.136;2022-11-15T09:22:25;54.65;;;28.58;;
41861;SDS011;27537;57.134;-2.136;2022-11-15T09:24:52;41.00;;;24.88;;
41861;SDS011;27537;57.134;-2.136;2022-11-15T09:27:19;43.80;;;25.65;;
41861;SDS011;27537;57.134;-2.136;2022-11-15T09:29:46;51.50;;;25.17;;
41861;SDS011;27537;57.134;-2.136;2022-11-15T09:32:13;57.88;;;25.73;;
41861;SDS011;27537;57.134;-2.136;2022-11-15T09:34:39;62.35;;;27.40;;
41861;SDS011;27537;57.134;-2.136;2022-11-15T09:37:06;47.03;;;25.13;;
41861;SDS011;27537;57.134;-2.136;2022-11-15T09:39:33;49.20;;;24.27;;
41861;SDS011;27537;57.134;-2.136;2022-11-15T09:42:09;64.10;;;26.02;;
41861;SDS011;27537;57.134;-2.136;2022-11-15T09:50:32;52.50;;;24.73;;
41861;SDS011;27537;57.134;-2.136;2022-11-15T09:53:05;43.80;;;23.77;;
41861;SDS011;27537;57.134;-2.136;2022-11-15T09:55:47;48.70;;;24.83;;
41861;SDS011;27537;57.134;-2.136;2022-11-15T10:01:12;48.92;;;22.10;;
41861;SDS011;27537;57.134;-2.136;2022-11-15T10:03:46;45.63;;;24.20;;
41861;SDS011;27537;57.134;-2.136;2022-11-15T10:06:23;44.83;;;22.10;;
41861;SDS011;27537;57.134;-2.136;2022-11-15T10:11:31;45.08;;;23.77;;
41861;SDS011;27537;57.134;-2.136;2022-11-15T10:14:07;47.35;;;21.70;;
41861;SDS011;27537;57.134;-2.136;2022-11-15T10:22:28;43.88;;;22.60;;
41861;SDS011;27537;57.134;-2.136;2022-11-15T10:27:34;50.00;;;22.88;;
41861;SDS011;27537;57.134;-2.136;2022-11-15T10:30:02;58.38;;;24.45;;
41861;SDS011;27537;57.134;-2.136;2022-11-15T10:32:30;52.88;;;23.70;;
41861;SDS011;27537;57.134;-2.136;2022-11-15T10:35:15;46.47;;;24.02;;
41861;SDS011;27537;57.134;-2.136;2022-11-15T10:37:48;45.83;;;23.17;;
41861;SDS011;27537;57.134;-2.136;2022-11-15T10:40:20;53.38;;;26.75;;
41861;SDS011;27537;57.134;-2.136;2022-11-15T10:43:04;43.55;;;24.35;;
41861;SDS011;27537;57.134;-2.136;2022-11-15T10:45:38;61.80;;;24.77;;
41861;SDS011;27537;57.134;-2.136;2022-11-15T10:50:39;43.63;;;23.08;;
41861;SDS011;27537;57.134;-2.136;2022-11-15T10:53:27;48.65;;;22.77;;
41861;SDS011;27537;57.134;-2.136;2022-11-15T10:56:07;45.38;;;22.05;;
41861;SDS011;27537;57.134;-2.136;2022-11-15T10:58:44;40.42;;;21.85;;
41861;SDS011;27537;57.134;-2.136;2022-11-15T11:01:19;48.13;;;23.40;;
41861;SDS011;27537;57.134;-2.136;2022-11-15T11:03:59;47.45;;;21.88;;
41861;SDS011;27537;57.134;-2.136;2022-11-15T11:06:31;44.38;;;21.15;;
41861;SDS011;27537;57.134;-2.136;2022-11-15T11:09:30;48.55;;;22.63;;
41861;SDS011;27537;57.134;-2.136;2022-11-15T11:12:00;44.05;;;21.75;;
41861;SDS011;27537;57.134;-2.136;2022-11-15T11:14:28;44.67;;;21.00;;
41861;SDS011;27537;57.134;-2.136;2022-11-15T11:17:12;47.22;;;22.60;;
41861;SDS011;27537;57.134;-2.136;2022-11-15T11:31:17;36.05;;;15.48;;
41861;SDS011;27537;57.134;-2.136;2022-11-15T11:34:04;35.75;;;14.40;;
41861;SDS011;27537;57.134;-2.136;2022-11-15T11:37:04;34.05;;;13.45;;
41861;SDS011;27537;57.134;-2.136;2022-11-15T11:45:44;29.67;;;12.00;;
41861;SDS011;27537;57.134;-2.136;2022-11-15T11:48:44;24.20;;;8.30;;
41861;SDS011;27537;57.134;-2.136;2022-11-15T11:51:24;22.40;;;7.60;;
41861;SDS011;27537;57.134;-2.136;2022-11-15T11:54:18;31.33;;;7.13;;
41861;SDS011;27537;57.134;-2.136;2022-11-15T11:56:50;24.58;;;6.72;;
41861;SDS011;27537;57.134;-2.136;2022-11-15T12:02:14;21.75;;;6.13;;
41861;SDS011;27537;57.134;-2.136;2022-11-15T12:04:50;26.98;;;5.20;;
41861;SDS011;27537;57.134;-2.136;2022-11-15T12:10:19;22.45;;;5.10;;
41861;SDS011;27537;57.134;-2.136;2022-11-15T12:12:54;19.33;;;3.55;;
41861;SDS011;27537;57.134;-2.136;2022-11-15T12:15:23;26.75;;;4.88;;
41861;SDS011;27537;57.134;-2.136;2022-11-15T12:17:54;14.55;;;4.95;;
41861;SDS011;27537;57.134;-2.136;2022-11-15T12:20:24;29.60;;;7.68;;
41861;SDS011;27537;57.134;-2.136;2022-11-15T12:22:56;15.85;;;5.20;;
41861;SDS011;27537;57.134;-2.136;2022-11-15T12:30:56;24.45;;;7.40;;
41861;SDS011;27537;57.134;-2.136;2022-11-15T12:33:34;20.63;;;5.15;;
41861;SDS011;27537;57.134;-2.136;2022-11-15T12:36:05;16.83;;;4.68;;
41861;SDS011;27537;57.134;-2.136;2022-11-15T12:38:58;17.38;;;5.35;;
41861;SDS011;27537;57.134;-2.136;2022-11-15T12:41:27;16.25;;;4.93;;
41861;SDS011;27537;57.134;-2.136;2022-11-15T12:43:55;20.13;;;5.22;;
41861;SDS011;27537;57.134;-2.136;2022-11-15T12:58:26;22.50;;;4.47;;
41861;SDS011;27537;57.134;-2.136;2022-11-15T13:00:56;20.65;;;4.68;;
41861;SDS011;27537;57.134;-2.136;2022-11-15T13:03:23;15.75;;;4.18;;
41861;SDS011;27537;57.134;-2.136;2022-11-15T13:05:53;18.40;;;4.55;;
41861;SDS011;27537;57.134;-2.136;2022-11-15T13:08:37;19.52;;;5.10;;
41861;SDS011;27537;57.134;-2.136;2022-11-15T13:17:24;14.82;;;4.55;;
41861;SDS011;27537;57.134;-2.136;2022-11-15T13:22:41;20.05;;;5.60;;
41861;SDS011;27537;57.134;-2.136;2022-11-15T13:25:30;19.20;;;5.35;;
41861;SDS011;27537;57.134;-2.136;2022-11-15T13:28:24;21.63;;;5.95;;
41861;SDS011;27537;57.134;-2.136;2022-11-15T13:30:57;18.13;;;5.32;;
41861;SDS011;27537;57.134;-2.136;2022-11-15T13:33:33;25.40;;;7.07;;
41861;SDS011;27537;57.134;-2.136;2022-11-15T13:36:06;22.30;;;6.13;;
41861;SDS011;27537;57.134;-2.136;2022-11-15T13:39:11;26.55;;;5.43;;
41861;SDS011;27537;57.134;-2.136;2022-11-15T13:41:54;18.35;;;5.88;;
41861;SDS011;27537;57.134;-2.136;2022-11-15T13:44:28;22.10;;;5.47;;
41861;SDS011;27537;57.134;-2.136;2022-11-15T13:47:04;24.20;;;6.00;;
41861;SDS011;27537;57.134;-2.136;2022-11-15T13:49:33;25.83;;;6.35;;
41861;SDS011;27537;57.134;-2.136;2022-11-15T13:52:01;23.77;;;6.28;;
41861;SDS011;27537;57.134;-2.136;2022-11-15T13:57:26;25.90;;;6.50;;
41861;SDS011;27537;57.134;-2.136;2022-11-15T13:59:59;28.30;;;5.97;;
41861;SDS011;27537;57.134;-2.136;2022-11-15T14:02:30;31.30;;;7.30;;
41861;SDS011;27537;57.134;-2.136;2022-11-15T14:07:26;28.10;;;6.10;;
41861;SDS011;27537;57.134;-2.136;2022-11-15T14:09:55;22.58;;;5.97;;
41861;SDS011;27537;57.134;-2.136;2022-11-15T14:14:58;34.67;;;6.82;;
41861;SDS011;27537;57.134;-2.136;2022-11-15T14:19:59;27.90;;;8.63;;
41861;SDS011;27537;57.134;-2.136;2022-11-15T14:25:13;78.60;;;32.30;;
41861;SDS011;27537;57.134;-2.136;2022-11-15T14:27:43;184.68;;;85.68;;
41861;SDS011;27537;57.134;-2.136;2022-11-15T14:30:31;218.90;;;95.68;;
41861;SDS011;27537;57.134;-2.136;2022-11-15T14:32:58;107.25;;;47.67;;
41861;SDS011;27537;57.134;-2.136;2022-11-15T14:35:25;245.32;;;114.85;;
41861;SDS011;27537;57.134;-2.136;2022-11-15T14:37:52;95.43;;;44.17;;
41861;SDS011;27537;57.134;-2.136;2022-11-15T14:40:21;47.85;;;18.05;;
41861;SDS011;27537;57.134;-2.136;2022-11-15T14:42:49;35.50;;;12.00;;
41861;SDS011;27537;57.134;-2.136;2022-11-15T14:45:17;33.40;;;8.23;;
41861;SDS011;27537;57.134;-2.136;2022-11-15T14:47:46;36.55;;;11.25;;
41861;SDS011;27537;57.134;-2.136;2022-11-15T14:50:17;31.00;;;8.10;;
41861;SDS011;27537;57.134;-2.136;2022-11-15T14:52:46;29.15;;;7.30;;
41861;SDS011;27537;57.134;-2.136;2022-11-15T14:57:48;25.02;;;6.43;;
41861;SDS011;27537;57.134;-2.136;2022-11-15T15:00:15;31.50;;;8.25;;
41861;SDS011;27537;57.134;-2.136;2022-11-15T15:02:43;34.13;;;8.05;;
41861;SDS011;27537;57.134;-2.136;2022-11-15T15:05:19;43.33;;;7.55;;
41861;SDS011;27537;57.134;-2.136;2022-11-15T15:07:47;38.58;;;8.45;;
41861;SDS011;27537;57.134;-2.136;2022-11-15T15:10:15;30.40;;;6.10;;
41861;SDS011;27537;57.134;-2.136;2022-11-15T15:13:03;28.48;;;7.22;;
41861;SDS011;27537;57.134;-2.136;2022-11-15T15:15:35;26.00;;;6.40;;
41861;SDS011;27537;57.134;-2.136;2022-11-15T15:18:03;30.58;;;6.80;;
41861;SDS011;27537;57.134;-2.136;2022-11-15T15:20:31;31.05;;;6.15;;
41861;SDS011;27537;57.134;-2.136;2022-11-15T15:22:58;28.90;;;7.35;;
41861;SDS011;27537;57.134;-2.136;2022-11-15T15:25:30;30.17;;;6.63;;
41861;SDS011;27537;57.134;-2.136;2022-11-15T15:27:59;23.35;;;5.30;;
41861;SDS011;27537;57.134;-2.136;2022-11-15T15:30:27;32.47;;;6.57;;
41861;SDS011;27537;57.134;-2.136;2022-11-15T15:32:55;28.73;;;5.50;;
41861;SDS011;27537;57.134;-2.136;2022-11-15T15:35:29;27.45;;;5.40;;
41861;SDS011;27537;57.134;-2.136;2022-11-15T15:37:58;68.38;;;24.40;;
41861;SDS011;27537;57.134;-2.136;2022-11-15T15:40:25;71.53;;;32.53;;
41861;SDS011;27537;57.134;-2.136;2022-11-15T15:42:54;38.03;;;13.73;;
41861;SDS011;27537;57.134;-2.136;2022-11-15T15:45:21;106.50;;;44.28;;
41861;SDS011;27537;57.134;-2.136;2022-11-15T15:47:48;46.17;;;15.98;;
41861;SDS011;27537;57.134;-2.136;2022-11-15T15:50:28;36.17;;;11.32;;
41861;SDS011;27537;57.134;-2.136;2022-11-15T15:52:59;110.93;;;53.38;;
41861;SDS011;27537;57.134;-2.136;2022-11-15T15:55:27;69.78;;;22.88;;
41861;SDS011;27537;57.134;-2.136;2022-11-15T15:57:55;85.82;;;32.03;;
41861;SDS011;27537;57.134;-2.136;2022-11-15T16:00:22;42.55;;;14.43;;
41861;SDS011;27537;57.134;-2.136;2022-11-15T16:02:52;45.28;;;14.10;;
41861;SDS011;27537;57.134;-2.136;2022-11-15T16:05:21;48.30;;;12.55;;
41861;SDS011;27537;57.134;-2.136;2022-11-15T16:07:48;58.17;;;19.67;;
41861;SDS011;27537;57.134;-2.136;2022-11-15T16:10:20;30.30;;;8.07;;
41861;SDS011;27537;57.134;-2.136;2022-11-15T16:12:47;44.20;;;14.95;;
41861;SDS011;27537;57.134;-2.136;2022-11-15T16:15:15;53.58;;;20.85;;
41861;SDS011;27537;57.134;-2.136;2022-11-15T16:17:55;33.22;;;7.88;;
41861;SDS011;27537;57.134;-2.136;2022-11-15T16:21:07;72.25;;;26.38;;
41861;SDS011;27537;57.134;-2.136;2022-11-15T16:23:16;72.75;;;26.98;;
41861;SDS011;27537;57.134;-2.136;2022-11-15T16:25:50;40.95;;;9.77;;
41861;SDS011;27537;57.134;-2.136;2022-11-15T16:28:29;38.47;;;12.20;;
41861;SDS011;27537;57.134;-2.136;2022-11-15T16:31:05;34.58;;;9.82;;
41861;SDS011;27537;57.134;-2.136;2022-11-15T16:33:35;58.08;;;19.40;;
41861;SDS011;27537;57.134;-2.136;2022-11-15T16:36:06;40.97;;;11.52;;
41861;SDS011;27537;57.134;-2.136;2022-11-15T16:38:52;36.78;;;9.32;;
41861;SDS011;27537;57.134;-2.136;2022-11-15T16:41:19;50.05;;;13.25;;
41861;SDS011;27537;57.134;-2.136;2022-11-15T16:43:46;42.60;;;10.82;;
41861;SDS011;27537;57.134;-2.136;2022-11-15T16:46:20;31.92;;;9.20;;